sensor_id;sensor_type;location;lat;lon;timestamp;temperature;humidity
3954;DHT22;1991;48.682;9.030;2022-10-31T00:01:23;12.20;99.90
3954;DHT22;1991;48.682;9.030;2022-10-31T00:03:49;12.30;99.90
3954;DHT22;1991;48.682;9.030;2022-10-31T00:06:15;12.30;99.90
3954;DHT22;1991;48.682;9.030;2022-10-31T00:08:47;12.30;99.90
3954;DHT22;1991;48.682;9.030;2022-10-31T00:11:13;12.20;99.90
3954;DHT22;1991;48.682;9.030;2022-10-31T00:13:38;12.30;99.90
3954;DHT22;1991;48.682;9.030;2022-10-31T00:16:05;12.20;99.90
3954;DHT22;1991;48.682;9.030;2022-10-31T00:18:30;12.20;99.90
3954;DHT22;1991;48.682;9.030;2022-10-31T00:21:00;12.10;99.90
3954;DHT22;1991;48.682;9.030;2022-10-31T00:23:26;12.10;99.90
3954;DHT22;1991;48.682;9.030;2022-10-31T00:25:52;12.10;99.90
3954;DHT22;1991;48.682;9.030;2022-10-31T00:28:17;12.10;99.90
3954;DHT22;1991;48.682;9.030;2022-10-31T00:30:43;12.00;99.90
3954;DHT22;1991;48.682;9.030;2022-10-31T00:33:08;12.00;99.90
3954;DHT22;1991;48.682;9.030;2022-10-31T00:35:34;12.00;99.90
3954;DHT22;1991;48.682;9.030;2022-10-31T00:38:00;12.00;99.90
3954;DHT22;1991;48.682;9.030;2022-10-31T00:40:25;11.90;99.90
3954;DHT22;1991;48.682;9.030;2022-10-31T00:42:51;12.00;99.90
3954;DHT22;1991;48.682;9.030;2022-10-31T00:45:16;12.00;99.90
3954;DHT22;1991;48.682;9.030;2022-10-31T00:47:42;11.90;99.90
3954;DHT22;1991;48.682;9.030;2022-10-31T00:50:08;11.90;99.90
3954;DHT22;1991;48.682;9.030;2022-10-31T00:52:33;11.80;99.90
3954;DHT22;1991;48.682;9.030;2022-10-31T00:54:59;11.70;99.90
3954;DHT22;1991;48.682;9.030;2022-10-31T00:57:24;11.70;99.90
3954;DHT22;1991;48.682;9.030;2022-10-31T00:59:50;11.70;99.90
3954;DHT22;1991;48.682;9.030;2022-10-31T01:02:15;11.70;99.90
3954;DHT22;1991;48.682;9.030;2022-10-31T01:04:41;11.70;99.90
3954;DHT22;1991;48.682;9.030;2022-10-31T01:07:07;11.70;99.90
3954;DHT22;1991;48.682;9.030;2022-10-31T01:09:32;11.70;99.90
3954;DHT22;1991;48.682;9.030;2022-10-31T01:11:58;11.70;99.90
3954;DHT22;1991;48.682;9.030;2022-10-31T01:14:23;11.70;99.90
3954;DHT22;1991;48.682;9.030;2022-10-31T01:16:49;11.70;99.90
3954;DHT22;1991;48.682;9.030;2022-10-31T01:19:15;11.70;99.90
3954;DHT22;1991;48.682;9.030;2022-10-31T01:21:40;11.70;99.90
3954;DHT22;1991;48.682;9.030;2022-10-31T01:24:06;11.60;99.90
3954;DHT22;1991;48.682;9.030;2022-10-31T01:26:33;11.70;99.90
3954;DHT22;1991;48.682;9.030;2022-10-31T01:29:05;11.60;99.90
3954;DHT22;1991;48.682;9.030;2022-10-31T01:31:34;11.70;99.90
3954;DHT22;1991;48.682;9.030;2022-10-31T01:33:59;11.60;99.90
3954;DHT22;1991;48.682;9.030;2022-10-31T01:36:33;11.60;99.90
3954;DHT22;1991;48.682;9.030;2022-10-31T01:39:03;11.60;99.90
3954;DHT22;1991;48.682;9.030;2022-10-31T01:41:32;11.70;99.90
3954;DHT22;1991;48.682;9.030;2022-10-31T01:44:49;11.60;99.90
3954;DHT22;1991;48.682;9.030;2022-10-31T01:46:52;11.60;99.90
3954;DHT22;1991;48.682;9.030;2022-10-31T01:49:24;11.60;99.90
3954;DHT22;1991;48.682;9.030;2022-10-31T01:52:00;11.60;99.90
3954;DHT22;1991;48.682;9.030;2022-10-31T01:54:33;11.50;99.90
3954;DHT22;1991;48.682;9.030;2022-10-31T01:57:02;11.40;99.90
3954;DHT22;1991;48.682;9.030;2022-10-31T01:59:30;11.50;99.90
3954;DHT22;1991;48.682;9.030;2022-10-31T02:01:57;11.40;99.90
3954;DHT22;1991;48.682;9.030;2022-10-31T02:04:24;11.40;99.90
3954;DHT22;1991;48.682;9.030;2022-10-31T02:07:00;11.30;99.90
3954;DHT22;1991;48.682;9.030;2022-10-31T02:09:29;11.30;99.90
3954;DHT22;1991;48.682;9.030;2022-10-31T02:11:57;11.30;99.90
3954;DHT22;1991;48.682;9.030;2022-10-31T02:14:28;11.30;99.90
3954;DHT22;1991;48.682;9.030;2022-10-31T02:16:54;11.30;99.90
3954;DHT22;1991;48.682;9.030;2022-10-31T02:19:34;11.30;99.90
3954;DHT22;1991;48.682;9.030;2022-10-31T02:22:20;11.30;99.90
3954;DHT22;1991;48.682;9.030;2022-10-31T02:24:54;11.20;99.90
3954;DHT22;1991;48.682;9.030;2022-10-31T02:30:11;11.20;99.90
3954;DHT22;1991;48.682;9.030;2022-10-31T02:41:27;11.10;99.90
3954;DHT22;1991;48.682;9.030;2022-10-31T02:49:22;11.10;99.90
3954;DHT22;1991;48.682;9.030;2022-10-31T02:51:48;11.00;99.90
3954;DHT22;1991;48.682;9.030;2022-10-31T02:54:19;11.00;99.90
3954;DHT22;1991;48.682;9.030;2022-10-31T02:56:47;10.90;99.90
3954;DHT22;1991;48.682;9.030;2022-10-31T02:59:14;10.80;99.90
3954;DHT22;1991;48.682;9.030;2022-10-31T03:07:20;10.80;99.90
3954;DHT22;1991;48.682;9.030;2022-10-31T03:15:25;10.80;99.90
3954;DHT22;1991;48.682;9.030;2022-10-31T03:20:33;10.80;99.90
3954;DHT22;1991;48.682;9.030;2022-10-31T03:23:01;10.70;99.90
3954;DHT22;1991;48.682;9.030;2022-10-31T03:25:27;10.80;99.90
3954;DHT22;1991;48.682;9.030;2022-10-31T03:27:54;10.80;99.90
3954;DHT22;1991;48.682;9.030;2022-10-31T03:30:20;10.80;99.90
3954;DHT22;1991;48.682;9.030;2022-10-31T03:32:51;10.80;99.90
3954;DHT22;1991;48.682;9.030;2022-10-31T03:35:22;10.70;99.90
3954;DHT22;1991;48.682;9.030;2022-10-31T03:37:49;10.70;99.90
3954;DHT22;1991;48.682;9.030;2022-10-31T03:40:19;10.70;99.90
3954;DHT22;1991;48.682;9.030;2022-10-31T03:42:52;10.70;99.90
3954;DHT22;1991;48.682;9.030;2022-10-31T03:45:25;10.70;99.90
3954;DHT22;1991;48.682;9.030;2022-10-31T03:47:53;10.60;99.90
3954;DHT22;1991;48.682;9.030;2022-10-31T03:50:21;10.60;99.90
3954;DHT22;1991;48.682;9.030;2022-10-31T03:53:04;10.60;99.90
3954;DHT22;1991;48.682;9.030;2022-10-31T03:58:59;10.70;99.90
3954;DHT22;1991;48.682;9.030;2022-10-31T04:01:26;10.60;99.90
3954;DHT22;1991;48.682;9.030;2022-10-31T04:03:53;10.60;99.90
3954;DHT22;1991;48.682;9.030;2022-10-31T04:06:21;10.60;99.90
3954;DHT22;1991;48.682;9.030;2022-10-31T04:08:52;10.60;99.90
3954;DHT22;1991;48.682;9.030;2022-10-31T04:11:21;10.60;99.90
3954;DHT22;1991;48.682;9.030;2022-10-31T04:13:48;10.50;99.90
3954;DHT22;1991;48.682;9.030;2022-10-31T04:16:15;10.50;99.90
3954;DHT22;1991;48.682;9.030;2022-10-31T04:18:42;10.50;99.90
3954;DHT22;1991;48.682;9.030;2022-10-31T04:21:08;10.40;99.90
3954;DHT22;1991;48.682;9.030;2022-10-31T04:23:35;10.40;99.90
3954;DHT22;1991;48.682;9.030;2022-10-31T04:26:01;10.40;99.90
3954;DHT22;1991;48.682;9.030;2022-10-31T04:28:27;10.40;99.90
3954;DHT22;1991;48.682;9.030;2022-10-31T04:30:53;10.40;99.90
3954;DHT22;1991;48.682;9.030;2022-10-31T04:33:19;10.30;99.90
3954;DHT22;1991;48.682;9.030;2022-10-31T04:35:45;10.30;99.90
3954;DHT22;1991;48.682;9.030;2022-10-31T04:38:10;10.30;99.90
3954;DHT22;1991;48.682;9.030;2022-10-31T04:40:36;10.30;99.90
3954;DHT22;1991;48.682;9.030;2022-10-31T04:43:02;10.30;99.90
3954;DHT22;1991;48.682;9.030;2022-10-31T04:45:27;10.30;99.90
3954;DHT22;1991;48.682;9.030;2022-10-31T04:47:53;10.30;99.90
3954;DHT22;1991;48.682;9.030;2022-10-31T04:50:19;10.30;99.90
3954;DHT22;1991;48.682;9.030;2022-10-31T04:52:45;10.30;99.90
3954;DHT22;1991;48.682;9.030;2022-10-31T04:55:12;10.30;99.90
3954;DHT22;1991;48.682;9.030;2022-10-31T04:57:45;10.20;99.90
3954;DHT22;1991;48.682;9.030;2022-10-31T05:00:13;10.30;99.90
3954;DHT22;1991;48.682;9.030;2022-10-31T05:02:45;10.20;99.90
3954;DHT22;1991;48.682;9.030;2022-10-31T05:05:12;10.30;99.90
3954;DHT22;1991;48.682;9.030;2022-10-31T05:07:42;10.20;99.90
3954;DHT22;1991;48.682;9.030;2022-10-31T05:10:10;10.20;99.90
3954;DHT22;1991;48.682;9.030;2022-10-31T05:12:36;10.20;99.90
3954;DHT22;1991;48.682;9.030;2022-10-31T05:15:03;10.20;99.90
3954;DHT22;1991;48.682;9.030;2022-10-31T05:17:30;10.20;99.90
3954;DHT22;1991;48.682;9.030;2022-10-31T05:19:56;10.10;99.90
3954;DHT22;1991;48.682;9.030;2022-10-31T05:22:22;10.10;99.90
3954;DHT22;1991;48.682;9.030;2022-10-31T05:24:47;10.10;99.90
3954;DHT22;1991;48.682;9.030;2022-10-31T05:27:13;10.10;99.90
3954;DHT22;1991;48.682;9.030;2022-10-31T05:29:38;10.00;99.90
3954;DHT22;1991;48.682;9.030;2022-10-31T05:32:04;10.00;99.90
3954;DHT22;1991;48.682;9.030;2022-10-31T05:34:29;10.00;99.90
3954;DHT22;1991;48.682;9.030;2022-10-31T05:36:55;10.00;99.90
3954;DHT22;1991;48.682;9.030;2022-10-31T05:39:20;10.00;99.90
3954;DHT22;1991;48.682;9.030;2022-10-31T05:41:46;10.00;99.90
3954;DHT22;1991;48.682;9.030;2022-10-31T05:44:12;10.00;99.90
3954;DHT22;1991;48.682;9.030;2022-10-31T05:46:37;9.90;99.90
3954;DHT22;1991;48.682;9.030;2022-10-31T05:49:03;9.90;99.90
3954;DHT22;1991;48.682;9.030;2022-10-31T05:51:28;9.90;99.90
3954;DHT22;1991;48.682;9.030;2022-10-31T05:53:54;9.90;99.90
3954;DHT22;1991;48.682;9.030;2022-10-31T05:56:19;9.90;99.90
3954;DHT22;1991;48.682;9.030;2022-10-31T05:58:45;9.80;99.90
3954;DHT22;1991;48.682;9.030;2022-10-31T06:01:10;9.80;99.90
3954;DHT22;1991;48.682;9.030;2022-10-31T06:03:36;9.80;99.90
3954;DHT22;1991;48.682;9.030;2022-10-31T06:06:02;9.80;99.90
3954;DHT22;1991;48.682;9.030;2022-10-31T06:08:27;9.80;99.90
3954;DHT22;1991;48.682;9.030;2022-10-31T06:10:53;9.90;99.90
3954;DHT22;1991;48.682;9.030;2022-10-31T06:13:19;9.80;99.90
3954;DHT22;1991;48.682;9.030;2022-10-31T06:15:44;9.90;99.90
3954;DHT22;1991;48.682;9.030;2022-10-31T06:18:10;9.90;99.90
3954;DHT22;1991;48.682;9.030;2022-10-31T06:20:36;9.90;99.90
3954;DHT22;1991;48.682;9.030;2022-10-31T06:23:02;9.90;99.90
3954;DHT22;1991;48.682;9.030;2022-10-31T06:25:28;10.00;99.90
3954;DHT22;1991;48.682;9.030;2022-10-31T06:27:54;10.00;99.90
3954;DHT22;1991;48.682;9.030;2022-10-31T06:30:20;10.00;99.90
3954;DHT22;1991;48.682;9.030;2022-10-31T06:32:45;10.00;99.90
3954;DHT22;1991;48.682;9.030;2022-10-31T06:35:11;10.00;99.90
3954;DHT22;1991;48.682;9.030;2022-10-31T06:37:38;10.10;99.90
3954;DHT22;1991;48.682;9.030;2022-10-31T06:40:04;10.10;99.90
3954;DHT22;1991;48.682;9.030;2022-10-31T06:42:30;10.20;99.90
3954;DHT22;1991;48.682;9.030;2022-10-31T06:44:55;10.30;99.90
3954;DHT22;1991;48.682;9.030;2022-10-31T06:47:21;10.40;99.90
3954;DHT22;1991;48.682;9.030;2022-10-31T06:49:46;10.60;99.90
3954;DHT22;1991;48.682;9.030;2022-10-31T06:52:12;10.80;99.90
3954;DHT22;1991;48.682;9.030;2022-10-31T06:54:38;11.00;99.90
3954;DHT22;1991;48.682;9.030;2022-10-31T06:57:03;11.20;99.90
3954;DHT22;1991;48.682;9.030;2022-10-31T06:59:29;11.30;99.90
3954;DHT22;1991;48.682;9.030;2022-10-31T07:01:54;11.40;99.90
3954;DHT22;1991;48.682;9.030;2022-10-31T07:04:20;11.50;99.90
3954;DHT22;1991;48.682;9.030;2022-10-31T07:06:47;11.50;99.90
3954;DHT22;1991;48.682;9.030;2022-10-31T07:09:12;11.60;99.90
3954;DHT22;1991;48.682;9.030;2022-10-31T07:11:38;11.70;99.90
3954;DHT22;1991;48.682;9.030;2022-10-31T07:14:03;11.80;99.90
3954;DHT22;1991;48.682;9.030;2022-10-31T07:16:29;11.80;99.90
3954;DHT22;1991;48.682;9.030;2022-10-31T07:18:55;12.00;99.90
3954;DHT22;1991;48.682;9.030;2022-10-31T07:21:20;12.10;99.90
3954;DHT22;1991;48.682;9.030;2022-10-31T07:23:49;12.10;99.90
3954;DHT22;1991;48.682;9.030;2022-10-31T07:26:14;12.20;99.90
3954;DHT22;1991;48.682;9.030;2022-10-31T07:28:40;12.20;99.90
3954;DHT22;1991;48.682;9.030;2022-10-31T07:31:05;12.30;99.90
3954;DHT22;1991;48.682;9.030;2022-10-31T07:33:31;12.30;99.90
3954;DHT22;1991;48.682;9.030;2022-10-31T07:35:56;12.50;99.90
3954;DHT22;1991;48.682;9.030;2022-10-31T07:38:22;12.50;99.90
3954;DHT22;1991;48.682;9.030;2022-10-31T07:40:52;12.60;99.90
3954;DHT22;1991;48.682;9.030;2022-10-31T07:43:20;12.70;99.90
3954;DHT22;1991;48.682;9.030;2022-10-31T07:45:53;12.90;99.90
3954;DHT22;1991;48.682;9.030;2022-10-31T07:48:19;12.90;99.90
3954;DHT22;1991;48.682;9.030;2022-10-31T07:50:45;13.10;99.90
3954;DHT22;1991;48.682;9.030;2022-10-31T07:53:12;13.30;99.90
3954;DHT22;1991;48.682;9.030;2022-10-31T07:55:38;13.50;99.90
3954;DHT22;1991;48.682;9.030;2022-10-31T07:58:09;13.70;99.90
3954;DHT22;1991;48.682;9.030;2022-10-31T08:00:36;13.80;99.90
3954;DHT22;1991;48.682;9.030;2022-10-31T08:03:14;14.00;99.90
3954;DHT22;1991;48.682;9.030;2022-10-31T08:05:40;14.20;99.90
3954;DHT22;1991;48.682;9.030;2022-10-31T08:08:06;14.10;99.90
3954;DHT22;1991;48.682;9.030;2022-10-31T08:10:33;14.30;99.90
3954;DHT22;1991;48.682;9.030;2022-10-31T08:13:01;14.50;99.90
3954;DHT22;1991;48.682;9.030;2022-10-31T08:15:27;14.70;99.90
3954;DHT22;1991;48.682;9.030;2022-10-31T08:17:53;14.90;99.90
3954;DHT22;1991;48.682;9.030;2022-10-31T08:20:19;15.00;99.90
3954;DHT22;1991;48.682;9.030;2022-10-31T08:22:55;15.20;99.90
3954;DHT22;1991;48.682;9.030;2022-10-31T08:25:21;15.40;99.90
3954;DHT22;1991;48.682;9.030;2022-10-31T08:27:54;15.50;99.90
3954;DHT22;1991;48.682;9.030;2022-10-31T08:30:21;15.60;99.90
3954;DHT22;1991;48.682;9.030;2022-10-31T08:32:56;15.70;99.90
3954;DHT22;1991;48.682;9.030;2022-10-31T08:35:21;15.80;99.90
3954;DHT22;1991;48.682;9.030;2022-10-31T08:37:55;16.00;99.90
3954;DHT22;1991;48.682;9.030;2022-10-31T08:40:21;16.20;99.90
3954;DHT22;1991;48.682;9.030;2022-10-31T08:42:47;16.50;99.90
3954;DHT22;1991;48.682;9.030;2022-10-31T08:45:12;16.70;99.90
3954;DHT22;1991;48.682;9.030;2022-10-31T08:47:38;17.00;99.90
3954;DHT22;1991;48.682;9.030;2022-10-31T08:50:04;17.10;99.90
3954;DHT22;1991;48.682;9.030;2022-10-31T08:52:29;17.30;99.90
3954;DHT22;1991;48.682;9.030;2022-10-31T08:54:55;17.40;99.90
3954;DHT22;1991;48.682;9.030;2022-10-31T08:57:20;17.40;99.90
3954;DHT22;1991;48.682;9.030;2022-10-31T08:59:46;17.60;99.90
3954;DHT22;1991;48.682;9.030;2022-10-31T09:02:12;17.80;99.50
3954;DHT22;1991;48.682;9.030;2022-10-31T09:04:37;18.10;99.40
3954;DHT22;1991;48.682;9.030;2022-10-31T09:07:03;18.20;98.40
3954;DHT22;1991;48.682;9.030;2022-10-31T09:09:28;18.50;97.50
3954;DHT22;1991;48.682;9.030;2022-10-31T09:11:54;18.80;96.70
3954;DHT22;1991;48.682;9.030;2022-10-31T09:14:19;19.20;96.00
3954;DHT22;1991;48.682;9.030;2022-10-31T09:16:45;19.70;95.40
3954;DHT22;1991;48.682;9.030;2022-10-31T09:19:10;19.80;94.40
3954;DHT22;1991;48.682;9.030;2022-10-31T09:21:36;19.90;93.90
3954;DHT22;1991;48.682;9.030;2022-10-31T09:24:01;19.80;93.00
3954;DHT22;1991;48.682;9.030;2022-10-31T09:26:27;20.00;93.00
3954;DHT22;1991;48.682;9.030;2022-10-31T09:28:52;20.10;92.90
3954;DHT22;1991;48.682;9.030;2022-10-31T09:31:18;20.10;92.40
3954;DHT22;1991;48.682;9.030;2022-10-31T09:33:43;20.20;92.60
3954;DHT22;1991;48.682;9.030;2022-10-31T09:36:09;20.30;91.90
3954;DHT22;1991;48.682;9.030;2022-10-31T09:38:35;20.30;91.90
3954;DHT22;1991;48.682;9.030;2022-10-31T09:41:29;20.60;90.70
3954;DHT22;1991;48.682;9.030;2022-10-31T09:44:12;20.90;90.70
3954;DHT22;1991;48.682;9.030;2022-10-31T09:50:02;20.90;89.30
3954;DHT22;1991;48.682;9.030;2022-10-31T09:52:34;20.90;87.70
3954;DHT22;1991;48.682;9.030;2022-10-31T09:55:05;21.00;87.50
3954;DHT22;1991;48.682;9.030;2022-10-31T09:57:36;21.00;88.30
3954;DHT22;1991;48.682;9.030;2022-10-31T10:00:06;21.10;87.40
3954;DHT22;1991;48.682;9.030;2022-10-31T10:02:54;21.20;87.20
3954;DHT22;1991;48.682;9.030;2022-10-31T10:05:27;21.40;85.50
3954;DHT22;1991;48.682;9.030;2022-10-31T10:08:09;21.50;84.60
3954;DHT22;1991;48.682;9.030;2022-10-31T10:18:49;22.70;79.60
3954;DHT22;1991;48.682;9.030;2022-10-31T10:21:24;22.20;80.00
3954;DHT22;1991;48.682;9.030;2022-10-31T10:24:02;21.80;81.00
3954;DHT22;1991;48.682;9.030;2022-10-31T10:26:36;21.50;82.50
3954;DHT22;1991;48.682;9.030;2022-10-31T10:29:23;21.30;82.50
3954;DHT22;1991;48.682;9.030;2022-10-31T10:31:53;21.00;84.20
3954;DHT22;1991;48.682;9.030;2022-10-31T10:34:34;20.80;84.60
3954;DHT22;1991;48.682;9.030;2022-10-31T10:37:17;20.60;84.90
3954;DHT22;1991;48.682;9.030;2022-10-31T10:39:45;20.60;85.30
3954;DHT22;1991;48.682;9.030;2022-10-31T10:42:14;20.60;86.50
3954;DHT22;1991;48.682;9.030;2022-10-31T10:45:00;20.70;87.10
3954;DHT22;1991;48.682;9.030;2022-10-31T10:47:58;20.60;85.60
3954;DHT22;1991;48.682;9.030;2022-10-31T10:50:35;20.50;88.10
3954;DHT22;1991;48.682;9.030;2022-10-31T10:55:54;20.10;87.60
3954;DHT22;1991;48.682;9.030;2022-10-31T10:58:22;20.20;86.30
3954;DHT22;1991;48.682;9.030;2022-10-31T11:00:47;20.40;86.10
3954;DHT22;1991;48.682;9.030;2022-10-31T11:03:16;20.60;85.90
3954;DHT22;1991;48.682;9.030;2022-10-31T11:08:11;21.20;84.80
3954;DHT22;1991;48.682;9.030;2022-10-31T11:10:37;21.70;84.00
3954;DHT22;1991;48.682;9.030;2022-10-31T11:18:51;22.30;82.30
3954;DHT22;1991;48.682;9.030;2022-10-31T11:21:28;22.50;83.30
3954;DHT22;1991;48.682;9.030;2022-10-31T11:24:14;22.60;79.10
3954;DHT22;1991;48.682;9.030;2022-10-31T11:26:41;22.50;79.00
3954;DHT22;1991;48.682;9.030;2022-10-31T11:31:41;22.50;80.50
3954;DHT22;1991;48.682;9.030;2022-10-31T11:34:21;22.70;81.70
3954;DHT22;1991;48.682;9.030;2022-10-31T11:36:49;22.90;81.70
3954;DHT22;1991;48.682;9.030;2022-10-31T11:39:22;22.70;78.30
3954;DHT22;1991;48.682;9.030;2022-10-31T11:41:48;22.30;78.90
3954;DHT22;1991;48.682;9.030;2022-10-31T11:44:20;22.10;79.50
3954;DHT22;1991;48.682;9.030;2022-10-31T11:46:55;21.90;80.80
3954;DHT22;1991;48.682;9.030;2022-10-31T11:49:38;21.70;81.70
3954;DHT22;1991;48.682;9.030;2022-10-31T11:52:17;21.30;81.20
3954;DHT22;1991;48.682;9.030;2022-10-31T11:54:48;21.00;82.50
3954;DHT22;1991;48.682;9.030;2022-10-31T11:57:51;20.70;83.70
3954;DHT22;1991;48.682;9.030;2022-10-31T12:00:37;20.60;84.90
3954;DHT22;1991;48.682;9.030;2022-10-31T12:06:00;20.40;85.10
3954;DHT22;1991;48.682;9.030;2022-10-31T12:08:35;20.40;86.20
3954;DHT22;1991;48.682;9.030;2022-10-31T12:16:46;20.50;85.30
3954;DHT22;1991;48.682;9.030;2022-10-31T12:19:32;20.50;85.70
3954;DHT22;1991;48.682;9.030;2022-10-31T12:22:07;20.40;85.60
3954;DHT22;1991;48.682;9.030;2022-10-31T12:33:47;19.70;87.80
3954;DHT22;1991;48.682;9.030;2022-10-31T12:39:23;19.30;89.60
3954;DHT22;1991;48.682;9.030;2022-10-31T12:42:05;19.20;91.00
3954;DHT22;1991;48.682;9.030;2022-10-31T12:47:37;19.10;90.60
3954;DHT22;1991;48.682;9.030;2022-10-31T12:53:00;19.20;90.60
3954;DHT22;1991;48.682;9.030;2022-10-31T12:58:10;19.20;91.40
3954;DHT22;1991;48.682;9.030;2022-10-31T13:00:38;19.10;91.20
3954;DHT22;1991;48.682;9.030;2022-10-31T13:03:23;19.20;91.70
3954;DHT22;1991;48.682;9.030;2022-10-31T13:05:58;19.10;91.90
3954;DHT22;1991;48.682;9.030;2022-10-31T13:08:30;19.20;92.00
3954;DHT22;1991;48.682;9.030;2022-10-31T13:11:06;19.20;91.60
3954;DHT22;1991;48.682;9.030;2022-10-31T13:13:49;19.20;92.10
3954;DHT22;1991;48.682;9.030;2022-10-31T13:16:21;19.20;91.90
3954;DHT22;1991;48.682;9.030;2022-10-31T13:18:54;19.20;92.40
3954;DHT22;1991;48.682;9.030;2022-10-31T13:21:30;19.20;92.30
3954;DHT22;1991;48.682;9.030;2022-10-31T13:24:02;19.30;92.70
3954;DHT22;1991;48.682;9.030;2022-10-31T13:29:24;19.80;92.30
3954;DHT22;1991;48.682;9.030;2022-10-31T13:31:50;20.20;91.50
3954;DHT22;1991;48.682;9.030;2022-10-31T13:34:32;20.80;91.20
3954;DHT22;1991;48.682;9.030;2022-10-31T13:37:30;21.00;90.30
3954;DHT22;1991;48.682;9.030;2022-10-31T13:42:44;21.00;90.10
3954;DHT22;1991;48.682;9.030;2022-10-31T13:45:22;21.00;90.10
3954;DHT22;1991;48.682;9.030;2022-10-31T13:50:42;21.30;90.30
3954;DHT22;1991;48.682;9.030;2022-10-31T13:53:13;21.50;90.30
3954;DHT22;1991;48.682;9.030;2022-10-31T13:55:46;21.40;89.20
3954;DHT22;1991;48.682;9.030;2022-10-31T13:58:25;21.20;89.50
3954;DHT22;1991;48.682;9.030;2022-10-31T14:03:29;20.80;90.40
3954;DHT22;1991;48.682;9.030;2022-10-31T14:05:56;20.70;90.80
3954;DHT22;1991;48.682;9.030;2022-10-31T14:08:23;20.70;90.80
3954;DHT22;1991;48.682;9.030;2022-10-31T14:10:51;20.90;90.90
3954;DHT22;1991;48.682;9.030;2022-10-31T14:13:25;21.00;90.30
3954;DHT22;1991;48.682;9.030;2022-10-31T14:18:23;20.80;90.00
3954;DHT22;1991;48.682;9.030;2022-10-31T14:20:49;20.70;90.20
3954;DHT22;1991;48.682;9.030;2022-10-31T14:28:41;20.60;90.70
3954;DHT22;1991;48.682;9.030;2022-10-31T14:31:34;20.50;90.80
3954;DHT22;1991;48.682;9.030;2022-10-31T14:34:19;20.30;91.00
3954;DHT22;1991;48.682;9.030;2022-10-31T14:39:32;20.30;90.80
3954;DHT22;1991;48.682;9.030;2022-10-31T14:42:11;20.20;91.00
3954;DHT22;1991;48.682;9.030;2022-10-31T14:47:16;20.10;91.20
3954;DHT22;1991;48.682;9.030;2022-10-31T14:52:41;19.90;92.00
3954;DHT22;1991;48.682;9.030;2022-10-31T14:55:11;19.80;92.10
3954;DHT22;1991;48.682;9.030;2022-10-31T14:57:51;19.70;92.50
3954;DHT22;1991;48.682;9.030;2022-10-31T15:00:20;19.60;92.70
3954;DHT22;1991;48.682;9.030;2022-10-31T15:05:20;19.30;94.00
3954;DHT22;1991;48.682;9.030;2022-10-31T15:07:52;19.10;94.40
3954;DHT22;1991;48.682;9.030;2022-10-31T15:10:30;18.90;95.00
3954;DHT22;1991;48.682;9.030;2022-10-31T15:13:09;18.80;95.30
3954;DHT22;1991;48.682;9.030;2022-10-31T15:15:36;18.60;95.80
3954;DHT22;1991;48.682;9.030;2022-10-31T15:18:04;18.40;96.40
3954;DHT22;1991;48.682;9.030;2022-10-31T15:20:36;18.30;96.60
3954;DHT22;1991;48.682;9.030;2022-10-31T15:23:03;18.30;96.80
3954;DHT22;1991;48.682;9.030;2022-10-31T15:25:33;18.30;97.50
3954;DHT22;1991;48.682;9.030;2022-10-31T15:27:59;18.40;98.20
3954;DHT22;1991;48.682;9.030;2022-10-31T15:30:29;18.30;98.90
3954;DHT22;1991;48.682;9.030;2022-10-31T15:32:55;18.20;99.10
3954;DHT22;1991;48.682;9.030;2022-10-31T15:35:29;18.10;99.10
3954;DHT22;1991;48.682;9.030;2022-10-31T15:37:56;18.00;99.40
3954;DHT22;1991;48.682;9.030;2022-10-31T15:40:24;17.90;99.70
3954;DHT22;1991;48.682;9.030;2022-10-31T15:43:02;17.90;99.90
3954;DHT22;1991;48.682;9.030;2022-10-31T15:45:29;17.80;99.90
3954;DHT22;1991;48.682;9.030;2022-10-31T15:47:58;17.70;99.90
3954;DHT22;1991;48.682;9.030;2022-10-31T15:50:34;17.70;99.90
3954;DHT22;1991;48.682;9.030;2022-10-31T15:53:01;17.60;99.90
3954;DHT22;1991;48.682;9.030;2022-10-31T15:55:29;17.50;99.90
3954;DHT22;1991;48.682;9.030;2022-10-31T15:58:01;17.50;99.90
3954;DHT22;1991;48.682;9.030;2022-10-31T16:00:35;17.40;99.90
3954;DHT22;1991;48.682;9.030;2022-10-31T16:05:55;17.20;99.90
3954;DHT22;1991;48.682;9.030;2022-10-31T16:10:49;17.00;99.90
3954;DHT22;1991;48.682;9.030;2022-10-31T16:13:15;16.90;99.90
3954;DHT22;1991;48.682;9.030;2022-10-31T16:15:52;16.80;99.90
3954;DHT22;1991;48.682;9.030;2022-10-31T16:18:18;16.70;99.90
3954;DHT22;1991;48.682;9.030;2022-10-31T16:20:50;16.60;99.90
3954;DHT22;1991;48.682;9.030;2022-10-31T16:23:18;16.50;99.90
3954;DHT22;1991;48.682;9.030;2022-10-31T16:25:44;16.50;99.90
3954;DHT22;1991;48.682;9.030;2022-10-31T16:28:16;16.30;99.90
3954;DHT22;1991;48.682;9.030;2022-10-31T16:30:47;16.10;99.90
3954;DHT22;1991;48.682;9.030;2022-10-31T16:33:33;16.10;99.90
3954;DHT22;1991;48.682;9.030;2022-10-31T16:38:55;16.00;99.90
3954;DHT22;1991;48.682;9.030;2022-10-31T16:41:21;15.90;99.90
3954;DHT22;1991;48.682;9.030;2022-10-31T16:43:48;15.80;99.90
3954;DHT22;1991;48.682;9.030;2022-10-31T16:46:24;15.70;99.90
3954;DHT22;1991;48.682;9.030;2022-10-31T16:48:51;15.70;99.90
3954;DHT22;1991;48.682;9.030;2022-10-31T16:51:16;15.70;99.90
3954;DHT22;1991;48.682;9.030;2022-10-31T16:53:42;15.70;99.90
3954;DHT22;1991;48.682;9.030;2022-10-31T16:56:15;15.70;99.90
3954;DHT22;1991;48.682;9.030;2022-10-31T16:58:41;15.70;99.90
3954;DHT22;1991;48.682;9.030;2022-10-31T17:01:07;15.60;99.90
3954;DHT22;1991;48.682;9.030;2022-10-31T17:03:33;15.60;99.90
3954;DHT22;1991;48.682;9.030;2022-10-31T17:05:58;15.50;99.90
3954;DHT22;1991;48.682;9.030;2022-10-31T17:08:24;15.50;99.90
3954;DHT22;1991;48.682;9.030;2022-10-31T17:10:52;15.50;99.90
3954;DHT22;1991;48.682;9.030;2022-10-31T17:13:21;15.50;99.90
3954;DHT22;1991;48.682;9.030;2022-10-31T17:15:50;15.60;99.90
3954;DHT22;1991;48.682;9.030;2022-10-31T17:18:19;15.50;99.90
3954;DHT22;1991;48.682;9.030;2022-10-31T17:20:46;15.50;99.90
3954;DHT22;1991;48.682;9.030;2022-10-31T17:23:14;15.50;99.90
3954;DHT22;1991;48.682;9.030;2022-10-31T17:25:40;15.40;99.90
3954;DHT22;1991;48.682;9.030;2022-10-31T17:28:06;15.30;99.90
3954;DHT22;1991;48.682;9.030;2022-10-31T17:30:32;15.20;99.90
3954;DHT22;1991;48.682;9.030;2022-10-31T17:32:59;15.10;99.90
3954;DHT22;1991;48.682;9.030;2022-10-31T17:35:24;15.10;99.90
3954;DHT22;1991;48.682;9.030;2022-10-31T17:37:50;15.00;99.90
3954;DHT22;1991;48.682;9.030;2022-10-31T17:40:18;14.90;99.90
3954;DHT22;1991;48.682;9.030;2022-10-31T17:42:50;14.90;99.90
3954;DHT22;1991;48.682;9.030;2022-10-31T17:45:17;14.80;99.90
3954;DHT22;1991;48.682;9.030;2022-10-31T17:47:45;14.80;99.90
3954;DHT22;1991;48.682;9.030;2022-10-31T17:50:11;14.70;99.90
3954;DHT22;1991;48.682;9.030;2022-10-31T17:52:37;14.60;99.90
3954;DHT22;1991;48.682;9.030;2022-10-31T17:55:03;14.50;99.90
3954;DHT22;1991;48.682;9.030;2022-10-31T17:57:32;14.50;99.90
3954;DHT22;1991;48.682;9.030;2022-10-31T17:59:58;14.50;99.90
3954;DHT22;1991;48.682;9.030;2022-10-31T18:02:24;14.40;99.90
3954;DHT22;1991;48.682;9.030;2022-10-31T18:04:49;14.30;99.90
3954;DHT22;1991;48.682;9.030;2022-10-31T18:07:15;14.30;99.90
3954;DHT22;1991;48.682;9.030;2022-10-31T18:09:45;14.20;99.90
3954;DHT22;1991;48.682;9.030;2022-10-31T18:12:11;14.10;99.90
3954;DHT22;1991;48.682;9.030;2022-10-31T18:14:36;14.10;99.90
3954;DHT22;1991;48.682;9.030;2022-10-31T18:17:02;14.10;99.90
3954;DHT22;1991;48.682;9.030;2022-10-31T18:19:27;14.10;99.90
3954;DHT22;1991;48.682;9.030;2022-10-31T18:21:53;14.00;99.90